Time;durP1;ratioP1;P1;durP2;ratioP2;P2;SDS_P1;SDS_P2;PMS_P1;PMS_P2;Temp;Humidity;BMP_temperature;BMP_pressure;BME280_temperature;BME280_humidity;BME280_pressure;Samples;Min_cycle;Max_cycle;Signal;HPM_P1;HPM_P2
2022/09/29 00:02:24;;;;;;;4.40;2.20;;;6.70;99.90;;;6.02;100.00;95765.75;5003391;28;20060;-52
2022/09/29 00:04:52;;;;;;;4.95;2.08;;;6.70;99.90;;;6.08;100.00;95772.47;5012647;28;20294;-54
2022/09/29 00:07:18;;;;;;;4.88;2.47;;;6.80;99.90;;;6.08;100.00;95756.78;5018163;28;20037;-52
2022/09/29 00:09:43;;;;;;;3.55;2.08;;;6.80;99.90;;;6.17;100.00;95766.81;5013403;28;20490;-52
2022/09/29 00:12:09;;;;;;;6.95;2.75;;;6.90;99.90;;;6.22;100.00;95769.25;5014440;28;20032;-49
2022/09/29 00:14:35;;;;;;;3.83;2.55;;;6.90;99.90;;;6.14;100.00;95746.06;5034338;28;20033;-49
2022/09/29 00:17:00;;;;;;;4.15;2.20;;;6.90;99.90;;;6.25;100.00;95758.66;5018709;28;20144;-52
2022/09/29 00:19:27;;;;;;;8.32;2.50;;;6.90;99.90;;;6.27;100.00;95756.81;5012755;28;20056;-51
2022/09/29 00:21:53;;;;;;;3.15;2.10;;;7.00;99.90;;;6.27;100.00;95748.94;5007309;28;20883;-52
2022/09/29 00:24:19;;;;;;;3.50;2.30;;;7.00;99.90;;;6.31;100.00;95751.34;5010166;28;20041;-48
2022/09/29 00:26:45;;;;;;;3.78;2.30;;;7.00;99.90;;;6.35;100.00;95748.59;5007424;28;20094;-54
2022/09/29 00:29:11;;;;;;;5.25;2.42;;;7.00;99.90;;;6.34;100.00;95747.75;5004557;28;20044;-48
2022/09/29 00:31:37;;;;;;;4.68;2.42;;;7.10;99.90;;;6.40;100.00;95744.00;5005351;28;20040;-52
2022/09/29 00:34:04;;;;;;;4.15;2.42;;;7.10;99.90;;;6.46;100.00;95754.16;5012095;28;20044;-51
2022/09/29 00:36:29;;;;;;;3.33;2.45;;;7.10;99.90;;;6.46;100.00;95746.31;5022038;28;20132;-51
2022/09/29 00:38:56;;;;;;;4.82;2.58;;;7.10;99.90;;;6.50;100.00;95748.72;5017828;28;20074;-53
2022/09/29 00:41:29;;;;;;;5.20;2.30;;;7.20;99.90;;;6.56;100.00;95755.44;5020690;28;20033;-52
2022/09/29 00:44:13;;;;;;;3.80;2.33;;;7.20;99.90;;;6.57;100.00;95751.91;5036729;28;20348;-50
2022/09/29 00:46:48;;;;;;;3.35;2.60;;;7.20;99.90;;;6.59;100.00;95752.69;5019037;28;20514;-50
2022/09/29 00:49:33;;;;;;;4.45;2.47;;;7.30;99.90;;;6.59;100.00;95747.44;5020090;28;20036;-52
2022/09/29 00:52:15;;;;;;;3.55;2.42;;;7.30;99.90;;;6.59;100.00;95741.34;5017657;28;20037;-52
2022/09/29 00:54:45;;;;;;;;;;;7.20;99.90;;;6.57;100.00;95746.66;5021364;28;20029;-52
2022/09/29 00:57:14;;;;;;;3.45;2.30;;;7.30;99.90;;;6.59;100.00;95746.59;5013598;28;19939;-52
2022/09/29 00:59:51;;;;;;;3.45;2.13;;;7.20;99.90;;;6.59;100.00;95742.19;5018387;28;20068;-52
2022/09/29 01:02:19;;;;;;;4.45;2.40;;;7.30;99.90;;;6.63;100.00;95742.91;5012110;28;20048;-52
2022/09/29 01:04:50;;;;;;;3.70;2.38;;;7.30;99.90;;;6.65;100.00;95730.56;5010877;28;20037;-51
2022/09/29 01:07:18;;;;;;;3.42;2.30;;;7.30;99.90;;;6.67;100.00;95747.91;5010927;28;20124;-50
2022/09/29 01:09:43;;;;;;;4.05;2.00;;;7.30;99.90;;;6.68;100.00;95744.38;5021939;28;20049;-50
2022/09/29 01:12:09;;;;;;;6.32;2.00;;;7.30;99.90;;;6.71;100.00;95735.50;5014987;28;20032;-51
2022/09/29 01:14:37;;;;;;;6.57;2.70;;;7.40;99.90;;;6.75;100.00;95738.81;5011410;28;20029;-51
2022/09/29 01:17:04;;;;;;;8.30;2.75;;;7.40;99.90;;;6.71;100.00;95725.03;5017415;28;20402;-49
2022/09/29 01:19:56;;;;;;;4.18;2.10;;;7.40;99.90;;;6.79;100.00;95730.75;5029477;28;20036;-49
2022/09/29 01:22:40;;;;;;;4.07;2.05;;;7.40;99.90;;;6.83;100.00;95734.06;5017639;28;20029;-49
2022/09/29 01:25:40;;;;;;;4.35;2.47;;;7.50;99.90;;;6.85;100.00;95733.06;5012069;28;20095;-51
2022/09/29 01:28:23;;;;;;;3.72;2.20;;;7.50;99.90;;;6.88;100.00;95734.72;5013310;28;20394;-49
2022/09/29 01:31:07;;;;;;;2.95;2.33;;;7.50;99.90;;;6.90;100.00;95735.47;5010533;28;20029;-50
2022/09/29 01:33:54;;;;;;;5.53;2.50;;;7.50;99.90;;;6.89;100.00;95731.13;5008210;28;20120;-50
2022/09/29 01:37:01;;;;;;;2.83;1.85;;;7.50;99.90;;;6.77;100.00;95713.44;5008827;28;20036;-52
2022/09/29 01:39:47;;;;;;;5.32;2.22;;;7.60;99.90;;;6.87;100.00;95728.63;5035020;22;20032;-43
2022/09/29 01:42:20;;;;;;;4.13;1.88;;;7.60;99.90;;;6.96;100.00;95735.16;5022390;28;20493;-44
2022/09/29 01:45:01;;;;;;;3.45;1.95;;;7.60;99.90;;;6.99;100.00;95734.19;5032670;28;20051;-45
2022/09/29 01:47:35;;;;;;;2.72;1.98;;;7.60;99.90;;;7.01;100.00;95735.78;5033325;28;20028;-43
2022/09/29 01:50:14;;;;;;;4.20;2.40;;;7.60;99.90;;;7.04;100.00;95735.63;5029858;28;20033;-44
2022/09/29 01:52:51;;;;;;;2.85;1.92;;;7.70;99.90;;;7.05;100.00;95733.84;5014056;28;20063;-43
2022/09/29 01:55:21;;;;;;;5.28;2.22;;;7.70;99.90;;;7.03;100.00;95730.47;5013975;28;20033;-45
2022/09/29 01:58:04;;;;;;;4.05;1.92;;;7.70;99.90;;;7.07;100.00;95753.84;5015374;28;20696;-44
2022/09/29 02:00:37;;;;;;;3.10;1.92;;;7.70;99.90;;;7.10;100.00;95750.22;5007347;28;20047;-43
2022/09/29 02:03:23;;;;;;;4.20;2.08;;;7.70;99.90;;;7.14;100.00;95751.78;5035464;28;20321;-45
2022/09/29 02:05:57;;;;;;;3.17;2.00;;;7.80;99.90;;;7.01;100.00;95717.44;5014346;28;20037;-44
2022/09/29 02:09:01;;;;;;;4.65;1.98;;;7.80;99.90;;;7.20;100.00;95748.00;5014309;28;20033;-45
2022/09/29 02:11:29;;;;;;;2.92;1.85;;;7.80;99.90;;;7.23;100.00;95743.44;4936171;28;20115;-45
2022/09/29 02:14:02;;;;;;;4.15;2.17;;;7.80;99.90;;;7.26;100.00;95750.31;4995355;28;20048;-43
2022/09/29 02:16:31;;;;;;;2.92;1.98;;;7.90;99.90;;;7.30;100.00;95743.97;5029864;28;20028;-44
2022/09/29 02:19:16;;;;;;;2.85;1.80;;;7.90;99.90;;;7.33;100.00;95750.84;5009835;28;23919;-43
2022/09/29 02:21:42;;;;;;;2.03;1.75;;;8.00;99.90;;;7.35;100.00;95752.47;5030309;28;20119;-43
2022/09/29 02:24:10;;;;;;;3.13;2.10;;;8.00;99.90;;;7.38;100.00;95756.72;5013016;28;20313;-44
2022/09/29 02:26:36;;;;;;;3.45;1.85;;;8.00;99.90;;;7.23;100.00;95722.47;5033551;28;20039;-43
2022/09/29 02:29:04;;;;;;;3.50;2.10;;;8.00;99.90;;;7.38;100.00;95752.31;5015221;28;20041;-44
2022/09/29 02:31:32;;;;;;;2.80;1.88;;;8.00;99.90;;;7.39;100.00;95746.16;5031357;28;20029;-46
2022/09/29 02:33:59;;;;;;;5.85;2.15;;;8.10;99.90;;;7.45;100.00;95753.69;5017845;28;20036;-43
2022/09/29 02:36:56;;;;;;;2.28;1.83;;;8.10;99.90;;;7.46;100.00;95754.53;5017569;28;20036;-43
2022/09/29 02:39:53;;;;;;;3.50;2.00;;;8.10;99.90;;;7.44;100.00;95751.97;5028182;28;20071;-45
2022/09/29 02:42:57;;;;;;;2.63;1.75;;;8.10;99.90;;;7.45;100.00;95748.44;5018183;28;20024;-45
2022/09/29 02:46:22;;;;;;;2.90;1.75;;;8.10;99.90;;;7.47;100.00;95752.78;5025047;28;20072;-44
2022/09/29 02:49:25;;;;;;;3.70;1.92;;;8.10;99.90;;;7.45;100.00;95751.06;5001202;28;20074;-44
2022/09/29 02:52:33;;;;;;;4.88;2.13;;;8.10;99.90;;;7.51;100.00;95749.06;5007403;28;20066;-45
2022/09/29 02:55:17;;;;;;;4.72;1.92;;;8.10;99.90;;;7.49;100.00;95743.06;5029377;28;20044;-43
2022/09/29 02:57:58;;;;;;;3.45;2.08;;;8.10;99.90;;;7.49;100.00;95735.19;5010629;28;20020;-44
2022/09/29 03:00:26;;;;;;;3.95;2.10;;;8.10;99.90;;;7.55;100.00;95742.72;5010119;28;20025;-43
2022/09/29 03:02:51;;;;;;;3.58;2.08;;;8.20;99.90;;;7.56;100.00;95733.94;5017900;28;20248;-45
2022/09/29 03:05:21;;;;;;;3.10;2.10;;;8.20;99.90;;;7.58;100.00;95742.59;5031220;28;20449;-43
2022/09/29 03:07:47;;;;;;;3.03;1.80;;;8.20;99.90;;;7.55;100.00;95727.00;5016253;28;20085;-44
2022/09/29 03:10:15;;;;;;;3.20;2.00;;;8.20;99.90;;;7.54;100.00;95717.44;5031860;28;20041;-44
2022/09/29 03:12:41;;;;;;;4.68;2.53;;;8.20;99.90;;;7.57;100.00;95719.88;5027195;28;20039;-44
2022/09/29 03:15:08;;;;;;;3.78;2.30;;;8.20;99.90;;;7.57;100.00;95725.13;5031175;28;20045;-43
2022/09/29 03:17:34;;;;;;;4.53;2.17;;;8.20;99.90;;;7.56;100.00;95723.44;5029460;28;20032;-43
2022/09/29 03:20:00;;;;;;;3.65;2.10;;;8.20;99.90;;;7.50;100.00;95718.50;5029658;28;20561;-44
2022/09/29 03:22:26;;;;;;;2.70;1.80;;;8.20;99.90;;;7.52;100.00;95727.13;5035868;28;20044;-44
2022/09/29 03:24:52;;;;;;;4.28;1.88;;;8.10;99.90;;;7.45;100.00;95719.59;5033569;28;21087;-44
2022/09/29 03:27:17;;;;;;;4.15;2.00;;;8.10;99.90;;;7.41;100.00;95725.94;5028319;28;20054;-43
2022/09/29 03:29:43;;;;;;;3.83;1.90;;;8.10;99.90;;;7.37;100.00;95729.63;5035407;28;20123;-43
2022/09/29 03:32:09;;;;;;;3.00;2.20;;;8.00;99.90;;;7.31;100.00;95729.94;5036957;28;20308;-43
2022/09/29 03:34:35;;;;;;;2.10;1.63;;;7.90;99.90;;;7.27;100.00;95717.94;5031925;28;20397;-43
2022/09/29 03:37:02;;;;;;;3.58;2.22;;;7.90;99.90;;;7.24;100.00;95724.16;5035325;28;20064;-43
2022/09/29 03:39:28;;;;;;;5.15;2.20;;;7.90;99.90;;;7.18;100.00;95721.03;5029379;28;20040;-44
2022/09/29 03:41:54;;;;;;;3.10;1.92;;;7.80;99.90;;;7.10;100.00;95726.63;5031833;28;20039;-43
2022/09/29 03:44:20;;;;;;;2.75;1.80;;;7.70;99.90;;;6.99;100.00;95724.53;5024215;28;20906;-44
2022/09/29 03:46:46;;;;;;;3.13;1.80;;;7.60;99.90;;;6.90;100.00;95722.38;5028537;28;20032;-43
2022/09/29 03:49:15;;;;;;;2.70;1.98;;;7.50;99.90;;;6.80;100.00;95714.13;5029219;28;20056;-44
2022/09/29 03:51:41;;;;;;;3.88;1.83;;;7.40;99.90;;;6.69;100.00;95713.78;5030264;28;20086;-43
2022/09/29 03:54:07;;;;;;;2.92;1.83;;;7.30;99.90;;;6.62;100.00;95710.63;5031836;28;20086;-45
2022/09/29 03:56:33;;;;;;;2.53;2.03;;;7.30;99.90;;;6.57;100.00;95707.38;5022531;28;20395;-42
2022/09/29 03:58:59;;;;;;;3.53;2.03;;;7.20;99.90;;;6.51;100.00;95707.66;5013619;28;20051;-43
2022/09/29 04:01:25;;;;;;;3.00;1.77;;;7.10;99.90;;;6.46;100.00;95715.75;5026226;28;20043;-43
2022/09/29 04:03:51;;;;;;;4.97;2.00;;;7.10;99.90;;;6.42;100.00;95718.56;5028747;28;20037;-43
2022/09/29 04:06:16;;;;;;;3.63;2.22;;;7.10;99.90;;;6.37;100.00;95712.69;5027076;28;20042;-47
2022/09/29 04:08:42;;;;;;;5.82;2.00;;;7.00;99.90;;;6.39;100.00;95718.72;5036075;28;20037;-43
2022/09/29 04:11:08;;;;;;;3.20;1.90;;;7.00;99.90;;;6.38;100.00;95717.03;5015199;28;20107;-45
2022/09/29 04:13:34;;;;;;;2.75;2.00;;;7.00;99.90;;;6.17;100.00;95690.09;5035600;28;20037;-42
2022/09/29 04:16:03;;;;;;;2.88;1.92;;;7.00;99.90;;;6.35;100.00;95714.53;5025564;28;20581;-46
2022/09/29 04:18:30;;;;;;;5.18;2.03;;;7.00;99.90;;;6.35;100.00;95718.00;5037355;28;20024;-43
2022/09/29 04:20:59;;;;;;;2.53;1.65;;;7.00;99.90;;;6.33;100.00;95708.53;5037911;28;20068;-44
2022/09/29 04:23:29;;;;;;;2.55;1.98;;;7.00;99.90;;;6.30;100.00;95715.63;5038780;28;20532;-44
2022/09/29 04:25:58;;;;;;;4.10;2.20;;;7.00;99.90;;;6.28;100.00;95711.34;5040193;28;20036;-43
2022/09/29 04:28:24;;;;;;;4.82;2.28;;;6.90;99.90;;;6.18;100.00;95699.66;5039722;28;20032;-44
2022/09/29 04:30:50;;;;;;;4.15;2.15;;;6.90;99.90;;;6.22;100.00;95709.88;5043593;28;20032;-44
2022/09/29 04:33:16;;;;;;;4.28;2.50;;;6.90;99.90;;;6.24;100.00;95708.03;5036686;28;20367;-44
2022/09/29 04:35:42;;;;;;;4.18;2.40;;;6.90;99.90;;;6.26;100.00;95708.84;5032556;28;20439;-43
2022/09/29 04:38:08;;;;;;;3.03;2.20;;;6.90;99.90;;;6.21;100.00;95700.34;5036776;28;20029;-43
2022/09/29 04:40:35;;;;;;;5.28;2.28;;;6.90;99.90;;;6.21;100.00;95713.44;5040584;28;20069;-43
2022/09/29 04:43:02;;;;;;;3.55;2.17;;;6.90;99.90;;;6.09;100.00;95707.00;5019842;28;20097;-45
2022/09/29 04:45:29;;;;;;;4.57;2.33;;;6.80;99.90;;;6.11;100.00;95713.00;5034201;28;20044;-44
2022/09/29 04:47:58;;;;;;;4.40;2.28;;;6.80;99.90;;;6.10;100.00;95710.44;5037343;28;20051;-43
2022/09/29 04:50:24;;;;;;;2.45;2.05;;;6.80;99.90;;;5.89;100.00;95683.50;5043095;28;20024;-43
2022/09/29 04:52:50;;;;;;;4.55;2.25;;;6.70;99.90;;;6.01;100.00;95723.97;5043713;28;20028;-45
2022/09/29 04:55:16;;;;;;;2.42;2.05;;;6.70;99.90;;;5.99;100.00;95723.19;5043929;28;20041;-47
2022/09/29 04:57:43;;;;;;;4.65;2.20;;;6.70;99.90;;;5.98;100.00;95727.56;5043762;28;20086;-43
2022/09/29 05:00:10;;;;;;;3.78;2.35;;;6.60;99.90;;;5.90;100.00;95717.44;5039363;28;20040;-42
2022/09/29 05:02:36;;;;;;;4.32;2.47;;;6.60;99.90;;;5.96;100.00;95732.03;5041693;28;20536;-45
2022/09/29 05:05:03;;;;;;;2.35;1.90;;;6.60;99.90;;;5.96;100.00;95733.78;5041431;28;20036;-44
2022/09/29 05:07:29;;;;;;;3.28;2.20;;;6.60;99.90;;;5.93;100.00;95732.97;5045065;28;20044;-46
2022/09/29 05:09:54;;;;;;;3.28;2.30;;;6.60;99.90;;;5.91;100.00;95731.34;5042692;28;20256;-43
2022/09/29 05:12:20;;;;;;;5.05;2.85;;;6.50;99.90;;;5.89;100.00;95741.88;5033735;28;21612;-46
2022/09/29 05:14:46;;;;;;;5.07;2.53;;;6.60;99.90;;;5.83;100.00;95742.19;5042766;28;20038;-46
2022/09/29 05:17:12;;;;;;;2.92;2.00;;;6.60;99.90;;;5.86;100.00;95747.25;5037090;28;20126;-44
2022/09/29 05:19:38;;;;;;;2.42;1.95;;;6.50;99.90;;;5.83;100.00;95752.63;5011508;28;20045;-43
2022/09/29 05:22:04;;;;;;;4.68;2.08;;;6.50;99.90;;;5.79;100.00;95753.66;5019033;28;20086;-47
2022/09/29 05:24:30;;;;;;;3.63;2.40;;;6.50;99.90;;;5.82;100.00;95750.94;5038309;28;20036;-44
2022/09/29 05:26:56;;;;;;;6.63;2.72;;;6.50;99.90;;;5.83;100.00;95752.63;5037827;28;20576;-43
2022/09/29 05:29:22;;;;;;;5.82;3.17;;;6.50;99.90;;;5.84;100.00;95754.31;5014055;28;20043;-46
2022/09/29 05:31:49;;;;;;;6.82;3.55;;;6.50;99.90;;;5.85;100.00;95756.03;5035531;28;20658;-45
2022/09/29 05:34:14;;;;;;;5.35;3.78;;;6.50;99.90;;;5.87;100.00;95759.44;5036724;28;20021;-44
2022/09/29 05:36:40;;;;;;;7.03;3.80;;;6.50;99.90;;;5.76;100.00;95737.25;5037369;28;20027;-43
2022/09/29 05:39:06;;;;;;;6.07;3.92;;;6.50;99.90;;;5.88;100.00;95749.81;5039159;28;20225;-43
2022/09/29 05:41:32;;;;;;;9.55;3.97;;;6.60;99.90;;;5.96;100.00;95757.34;5035965;28;20042;-43
2022/09/29 05:43:59;;;;;;;5.68;3.70;;;6.60;99.90;;;5.97;100.00;95749.41;5039821;28;20124;-44
2022/09/29 05:46:25;;;;;;;6.18;3.63;;;6.60;99.90;;;6.03;100.00;95749.16;5045427;28;20055;-43
2022/09/29 05:48:51;;;;;;;5.35;3.50;;;6.60;99.90;;;6.06;100.00;95756.00;5027912;28;20123;-43
2022/09/29 05:51:20;;;;;;;4.85;3.00;;;6.70;99.90;;;6.05;100.00;95749.94;5044741;28;20036;-42
2022/09/29 05:53:46;;;;;;;5.88;3.33;;;6.70;99.90;;;6.14;100.00;95753.91;5022820;28;20036;-44
2022/09/29 05:56:18;;;;;;;7.07;3.42;;;6.80;99.90;;;6.07;100.00;95734.16;5039431;28;20024;-44
2022/09/29 05:58:44;;;;;;;6.38;3.50;;;6.90;99.90;;;6.29;100.00;95755.78;5037351;28;20047;-45
2022/09/29 06:01:14;;;;;;;4.28;3.00;;;6.90;99.90;;;6.38;100.00;95761.53;5045134;28;20044;-45
2022/09/29 06:03:41;;;;;;;5.38;3.20;;;7.00;99.90;;;6.45;100.00;95752.47;5042714;28;20067;-45
2022/09/29 06:06:19;;;;;;;6.60;3.15;;;7.10;99.90;;;6.52;100.00;95751.28;5035920;28;20040;-47
2022/09/29 06:08:47;;;;;;;5.07;3.30;;;7.10;99.90;;;6.60;100.00;95750.91;5040532;28;20029;-45
2022/09/29 06:11:16;;;;;;;5.07;3.28;;;7.20;99.90;;;6.69;100.00;95751.31;5041514;28;20077;-49
2022/09/29 06:13:46;;;;;;;4.20;2.63;;;7.30;99.90;;;6.79;100.00;95754.34;5041585;28;20028;-44
2022/09/29 06:16:13;;;;;;;3.90;2.80;;;7.40;99.90;;;6.86;100.00;95757.53;5030691;28;20028;-43
2022/09/29 06:18:39;;;;;;;4.20;2.83;;;7.50;99.90;;;6.93;100.00;95765.91;5031916;28;20029;-44
2022/09/29 06:21:14;;;;;;;4.60;2.60;;;7.50;99.90;;;6.95;100.00;95764.09;5039058;28;20033;-44
2022/09/29 06:23:40;;;;;;;4.13;2.80;;;7.60;99.90;;;7.01;100.00;95759.38;5040636;28;20036;-46
2022/09/29 06:26:11;;;;;;;5.43;3.20;;;7.70;99.90;;;6.97;100.00;95739.50;5040317;28;20035;-46
2022/09/29 06:28:37;;;;;;;6.45;3.47;;;7.80;99.90;;;7.26;100.00;95772.13;5039843;28;20060;-44
2022/09/29 06:31:11;;;;;;;4.65;2.88;;;7.90;99.90;;;7.41;100.00;95774.91;5041914;28;20047;-45
2022/09/29 06:33:37;;;;;;;3.58;2.80;;;8.00;99.90;;;7.51;100.00;95773.50;5045247;28;20029;-44
2022/09/29 06:39:07;;;;;;;4.10;2.80;;;8.30;99.90;;;7.74;100.00;95780.22;5033426;28;20040;-44
2022/09/29 06:41:34;;;;;;;6.10;2.72;;;8.40;99.90;;;7.81;100.00;95792.09;5046224;28;20035;-46
2022/09/29 06:44:00;;;;;;;3.17;2.85;;;8.50;99.90;;;7.88;100.00;95789.13;5048254;28;20028;-46
2022/09/29 06:46:26;;;;;;;5.18;3.00;;;8.50;99.90;;;7.91;100.00;95791.59;5045009;28;20036;-44
2022/09/29 06:48:55;;;;;;;4.68;3.40;;;8.50;99.90;;;7.91;100.00;95786.34;5049668;28;20029;-44
2022/09/29 06:51:22;;;;;;;6.00;3.60;;;8.60;99.90;;;7.99;100.00;95786.81;5044256;28;20813;-47
2022/09/29 06:53:49;;;;;;;5.82;3.22;;;8.60;99.90;;;8.03;100.00;95780.47;5024117;28;20020;-44
2022/09/29 06:56:16;;;;;;;4.25;3.15;;;8.70;99.90;;;8.16;100.00;95791.16;5039694;28;20033;-46
2022/09/29 06:58:41;;;;;;;4.60;3.53;;;8.80;99.90;;;8.21;100.00;95784.75;5043870;28;20040;-43
2022/09/29 07:01:08;;;;;;;6.53;3.50;;;8.90;99.90;;;8.33;100.00;95785.03;5045561;28;20460;-44
2022/09/29 07:03:36;;;;;;;6.32;3.63;;;9.00;99.90;;;8.44;100.00;95793.22;5022612;28;20024;-45
2022/09/29 07:06:08;;;;;;;6.88;3.53;;;9.10;99.90;;;8.53;100.00;95778.72;5048851;28;20020;-43
2022/09/29 07:08:37;;;;;;;4.95;3.25;;;9.10;99.90;;;8.60;100.00;95786.19;5042817;28;20512;-43
2022/09/29 07:11:02;;;;;;;6.32;3.63;;;9.30;99.90;;;8.73;100.00;95791.59;5039903;28;20450;-43
2022/09/29 07:13:29;;;;;;;4.97;3.55;;;9.30;99.90;;;8.83;100.00;95797.22;5046039;28;20029;-46
2022/09/29 07:15:55;;;;;;;6.45;3.85;;;9.40;99.90;;;8.94;100.00;95799.25;5036317;28;20051;-44
2022/09/29 07:18:21;;;;;;;5.28;3.60;;;9.60;99.90;;;9.04;100.00;95800.41;5037560;28;20033;-44
2022/09/29 07:20:47;;;;;;;4.97;3.15;;;9.70;99.90;;;9.08;100.00;95785.28;5039157;28;20118;-45
2022/09/29 07:23:12;;;;;;;6.05;3.55;;;9.70;99.90;;;9.13;100.00;95793.78;5045898;28;20339;-43
2022/09/29 07:25:38;;;;;;;8.35;3.78;;;9.80;99.90;;;9.14;100.00;95795.50;5041377;28;20032;-43
2022/09/29 07:28:04;;;;;;;6.85;3.33;;;9.80;99.90;;;9.22;100.00;95803.78;5025699;28;20497;-43
2022/09/29 07:30:30;;;;;;;7.75;3.70;;;9.90;99.90;;;9.26;100.00;95804.44;5039566;28;20025;-47
2022/09/29 07:32:56;;;;;;;4.55;2.97;;;9.90;99.90;;;9.30;100.00;95806.81;5046517;28;20500;-43
2022/09/29 07:35:22;;;;;;;5.38;3.47;;;9.90;99.90;;;9.39;100.00;95809.88;5041444;28;20231;-43
2022/09/29 07:37:55;;;;;;;6.20;3.00;;;10.00;99.90;;;9.41;100.00;95802.75;5029998;28;20059;-44
2022/09/29 07:40:22;;;;;;;3.78;2.95;;;10.10;99.90;;;9.39;100.00;95794.94;5072723;22;20174;-45
2022/09/29 07:42:48;;;;;;;4.00;2.80;;;10.10;99.90;;;9.58;100.00;95810.47;5063022;28;20042;-44
2022/09/29 07:45:17;;;;;;;3.90;2.92;;;10.20;99.90;;;9.67;100.00;95812.59;5068186;28;20032;-45
2022/09/29 07:47:43;;;;;;;5.85;3.00;;;10.30;99.90;;;9.78;100.00;95817.22;5067498;28;20113;-42
2022/09/29 07:50:09;;;;;;;5.38;3.33;;;10.40;99.90;;;9.84;100.00;95824.75;5058124;28;20177;-46
2022/09/29 07:52:35;;;;;;;4.50;3.10;;;10.40;99.90;;;9.95;100.00;95821.47;5059433;28;20081;-46
2022/09/29 07:55:02;;;;;;;4.72;3.10;;;10.50;99.90;;;10.06;100.00;95818.19;5063778;28;20802;-44
2022/09/29 07:57:28;;;;;;;3.63;2.78;;;10.60;99.90;;;10.15;100.00;95822.91;5060871;28;20497;-43
2022/09/29 07:59:56;;;;;;;5.35;3.10;;;10.70;99.90;;;10.22;100.00;95824.25;5063683;28;20047;-46
2022/09/29 08:02:23;;;;;;;4.72;3.47;;;10.80;99.90;;;10.35;100.00;95824.38;5060310;28;20028;-44
2022/09/29 08:04:49;;;;;;;7.28;3.13;;;10.90;99.90;;;10.42;100.00;95822.22;5060344;28;20028;-45
2022/09/29 08:07:14;;;;;;;6.35;3.30;;;11.00;99.90;;;10.44;100.00;95817.69;5066789;28;20031;-44
2022/09/29 08:09:40;;;;;;;9.60;2.92;;;11.10;99.90;;;10.54;100.00;95823.25;5066247;28;20032;-45
2022/09/29 08:12:06;;;;;;;6.93;3.17;;;11.10;99.90;;;10.65;100.00;95826.91;5060012;28;20039;-45
2022/09/29 08:14:32;;;;;;;4.80;2.80;;;11.20;99.90;;;10.70;100.00;95824.81;5067258;28;20039;-45
2022/09/29 08:16:58;;;;;;;4.78;3.10;;;11.20;99.90;;;10.80;100.00;95827.75;5057475;28;20402;-43
2022/09/29 08:19:25;;;;;;;4.50;3.17;;;11.40;99.90;;;10.88;100.00;95821.97;5058753;28;20040;-47
2022/09/29 08:21:51;;;;;;;5.07;3.47;;;11.50;99.90;;;10.99;100.00;95826.56;5048711;28;20309;-45
2022/09/29 08:24:17;;;;;;;4.25;2.83;;;11.60;99.90;;;11.16;100.00;95829.00;5062892;28;20044;-41
2022/09/29 08:26:43;;;;;;;5.25;3.67;;;11.70;99.90;;;11.25;100.00;95836.31;5061012;28;20170;-45
2022/09/29 08:29:11;;;;;;;4.93;3.10;;;11.90;99.90;;;11.33;100.00;95833.16;5054523;28;20037;-46
2022/09/29 08:31:37;;;;;;;4.38;3.05;;;11.90;99.90;;;11.45;100.00;95842.09;5057351;28;20143;-45
2022/09/29 08:34:02;;;;;;;5.15;3.13;;;12.00;99.90;;;11.62;100.00;95835.69;5057679;28;20199;-46
2022/09/29 08:36:28;;;;;;;4.50;3.20;;;12.10;99.90;;;11.74;100.00;95832.25;5059982;28;20481;-44
2022/09/29 08:38:56;;;;;;;5.10;3.70;;;12.30;99.90;;;11.88;100.00;95836.59;5065144;28;20661;-45
2022/09/29 08:42:06;;;;;;;6.68;3.58;;;12.40;99.90;;;11.99;100.00;95835.91;5062143;28;20112;-45
2022/09/29 08:44:50;;;;;;;5.10;2.90;;;12.50;99.90;;;12.14;100.00;95842.78;5066080;28;20115;-44
2022/09/29 08:47:30;;;;;;;5.80;3.42;;;12.60;99.90;;;12.27;100.00;95850.72;5064183;28;20101;-43
2022/09/29 08:50:02;;;;;;;6.50;3.03;;;12.80;99.90;;;12.27;100.00;95849.88;5063309;28;20131;-45
2022/09/29 08:52:32;;;;;;;8.05;2.88;;;12.90;99.90;;;12.32;100.00;95853.91;5065773;28;20387;-46
2022/09/29 08:55:23;;;;;;;4.55;2.90;;;12.80;99.90;;;12.30;100.00;95857.63;5059232;28;20127;-44
2022/09/29 08:57:58;;;;;;;4.70;2.70;;;12.80;99.90;;;12.27;100.00;95860.47;5081339;27;20028;-46
2022/09/29 09:00:39;;;;;;;4.30;2.83;;;12.80;99.90;;;12.27;100.00;95865.75;5065161;28;20028;-45
2022/09/29 09:03:19;;;;;;;4.03;2.90;;;12.80;99.90;;;12.32;100.00;95868.91;5079251;28;20506;-44
2022/09/29 09:06:04;;;;;;;4.13;2.40;;;12.80;99.90;;;12.47;100.00;95857.31;5064061;28;20141;-42
2022/09/29 09:08:53;;;;;;;4.80;2.55;;;13.00;99.90;;;12.59;100.00;95860.88;5064577;28;20189;-43
2022/09/29 09:11:38;;;;;;;5.30;2.80;;;13.10;99.90;;;12.68;100.00;95854.09;5062709;28;20411;-45
2022/09/29 09:14:31;;;;;;;4.88;2.90;;;13.20;99.90;;;12.75;100.00;95861.50;5064896;28;20052;-43
2022/09/29 09:17:21;;;;;;;4.38;2.58;;;13.30;99.90;;;12.76;100.00;95862.38;5060661;28;20033;-45
2022/09/29 09:20:11;;;;;;;4.50;2.53;;;13.30;99.90;;;12.79;100.00;95870.94;5063720;28;20032;-45
2022/09/29 09:22:56;;;;;;;3.33;2.25;;;13.30;99.90;;;12.88;100.00;95871.22;5060353;28;20021;-46
2022/09/29 09:25:33;;;;;;;4.55;2.60;;;13.40;99.90;;;12.79;95.61;95878.00;5058804;28;20055;-44
2022/09/29 09:28:24;;;;;;;4.70;2.47;;;13.40;99.90;;;12.84;96.52;95880.34;5062791;28;20131;-43
2022/09/29 09:31:04;;;;;;;5.05;2.47;;;13.40;99.90;;;12.90;97.15;95888.69;5058796;28;20550;-43
2022/09/29 09:33:58;;;;;;;4.32;2.10;;;13.40;99.90;;;12.95;93.91;95881.25;5065018;28;20036;-46
2022/09/29 09:36:53;;;;;;;4.82;2.80;;;13.50;99.90;;;13.08;94.40;95885.69;5064001;28;20035;-46
2022/09/29 09:39:30;;;;;;;3.10;2.20;;;13.60;99.90;;;13.15;91.33;95882.50;5059507;28;20166;-45
2022/09/29 09:41:59;;;;;;;5.38;2.20;;;13.70;99.90;;;13.18;92.14;95894.66;5056602;28;20044;-46
2022/09/29 09:44:57;;;;;;;4.75;2.40;;;13.70;99.90;;;13.16;91.81;95893.94;5063565;28;20481;-44
2022/09/29 09:47:30;;;;;;;4.28;2.03;;;13.70;99.90;;;13.25;91.48;95887.13;5063787;28;20454;-46
2022/09/29 09:50:02;;;;;;;3.47;1.88;;;13.80;99.90;;;13.29;90.80;95886.78;5056800;28;20149;-43
2022/09/29 09:52:52;;;;;;;5.67;2.20;;;13.80;99.90;;;13.03;87.68;95843.69;5063674;28;20028;-45
2022/09/29 09:55:23;;;;;;;6.65;2.20;;;13.80;99.90;;;13.30;88.02;95885.00;5060936;28;20032;-45
2022/09/29 09:58:47;;;;;;;5.22;2.30;;;13.80;99.90;;;13.33;87.30;95874.22;5065936;28;20032;-46
2022/09/29 10:01:13;;;;;;;3.97;2.10;;;13.90;99.90;;;13.48;87.38;95877.56;5065444;28;20040;-45
2022/09/29 10:03:39;;;;;;;4.35;1.90;;;14.00;99.90;;;13.64;87.23;95885.22;5062312;28;20035;-43
2022/09/29 10:06:07;;;;;;;3.53;2.28;;;14.10;99.90;;;13.73;86.22;95876.63;5070312;28;20067;-42
2022/09/29 10:08:41;;;;;;;3.92;2.03;;;14.30;99.90;;;13.88;84.52;95893.16;5057119;28;20036;-42
2022/09/29 10:11:32;;;;;;;3.92;2.20;;;14.50;99.90;;;13.95;81.16;95883.81;5062252;28;20497;-45
2022/09/29 10:14:04;;;;;;;3.03;2.03;;;14.60;99.90;;;13.93;78.60;95888.38;5066408;28;20024;-43
2022/09/29 10:16:47;;;;;;;2.78;1.95;;;14.50;99.90;;;13.87;79.38;95884.38;5062602;28;20086;-43
2022/09/29 10:19:13;;;;;;;2.53;1.88;;;14.50;99.90;;;13.88;81.55;95888.72;5060996;28;21522;-45
2022/09/29 10:21:43;;;;;;;3.63;1.73;;;14.40;99.90;;;13.88;83.12;95886.06;5060392;28;20052;-45
2022/09/29 10:24:29;;;;;;;3.80;1.40;;;14.50;99.90;;;13.91;80.07;95885.00;5064665;28;20024;-46
2022/09/29 10:26:58;;;;;;;4.60;1.73;;;14.60;99.90;;;14.04;76.41;95887.59;5064539;28;20115;-43
2022/09/29 10:29:28;;;;;;;2.53;1.30;;;14.60;99.90;;;14.28;77.00;95884.88;5064057;28;20051;-45
2022/09/29 10:32:14;;;;;;;4.40;1.60;;;14.80;99.90;;;14.51;70.58;95896.38;5064837;28;20161;-47
2022/09/29 10:34:43;;;;;;;3.13;1.38;;;15.10;99.90;;;14.54;69.62;95888.19;5065685;28;20031;-46
2022/09/29 10:37:34;;;;;;;5.60;2.10;;;15.10;99.90;;;14.67;70.04;95883.66;5062440;28;20036;-46
2022/09/29 10:40:11;;;;;;;2.03;1.27;;;15.30;99.90;;;14.99;68.63;95884.78;5062818;28;20028;-45
2022/09/29 10:42:45;;;;;;;2.45;1.27;;;15.50;99.90;;;15.31;69.30;95882.22;5064534;28;20027;-45
2022/09/29 10:45:26;;;;;;;4.65;1.58;;;15.90;99.90;;;15.45;68.30;95889.91;5066698;28;20036;-44
2022/09/29 10:47:59;;;;;;;2.17;1.30;;;16.10;99.90;;;15.47;66.15;95887.13;5062009;28;20112;-47